Fort Wainwright, AK (99703)

8:48 AM AKST on December 03, 2016 (GMT -0900)
Ladd Army Air Field | | Change Station

Elev 453 ft 64.84 °N, 147.61 °W | Updated 50 minutes ago

Light Snow
Light Snow
-11 °F
Feels Like -11 °F
N
0
Wind Variable Wind from North

Today
High -- | Low -- °F
--% Chance of Precip.
Yesterday
High -- | Low -- °F
Precip. -- in
Pressure 30.17 in
Visibility 5.0 miles
Clouds Few 6000 ft
Dew Point -15 °F
Humidity 80%
Rainfall 0.01 in
Snow Depth Not available.
10:26 AM 2:54 PM
Waxing Crescent, 16% visible
METAR PAFB 031658Z AUTO 00000KT 5SM R25R/4500FT -SN FEW060 M24/M26 A3011 RMK AO2 SNE09SNB23 SLP216 P0000 T12371262
Pressure 30.17 in
Visibility 5.0 miles
Clouds Few 6000 ft
Dew Point -15 °F
Humidity 80%
Rainfall 0.01 in
Snow Depth Not available.
10:26 AM 2:54 PM
Waxing Crescent, 16% visible
METAR PAFB 031658Z AUTO 00000KT 5SM R25R/4500FT -SN FEW060 M24/M26 A3011 RMK AO2 SNE09SNB23 SLP216 P0000 T12371262

10-Day Weather Forecast

Almanac

Astronomy

Dec. 03, 2016 Rise Set
Actual Time
Civil Twilight
Nautical Twilight
Astronomical Twilight
Moon
Length of Visible Light
Length of Day
Tomorrow will be .
, % of the Moon is Illuminated

Today's Extremes

State Highs State Lows

Community

WunderPhotos

Upload Photos

1,955,455 photos uploaded!

WunderBlog® & News

Nearby

Air Quality

  Air Quality AQ Index Pollutant
Not available.

Snow Depth

Station Depth Elevation

Earthquake Activity

City Distance Mag. Time & Date
Minimum magnitude displayed is 2.5.

Coastal Water Temperatures

Place Temperature

Stations

Nearby Weather Stations

Station Location Temp. Windchill Dew Point Humidity Wind Precip. Elev Updated Type
                   

Watches & Warnings

There are currently no watches in effect.